sensor_id;sensor_type;location;lat;lon;timestamp;temperature;humidity
44517;DHT22;30223;17.182;-96.766;2023-02-11T00:01:28;26.50;46.50
44517;DHT22;30223;17.182;-96.766;2023-02-11T00:03:57;26.50;46.30
44517;DHT22;30223;17.182;-96.766;2023-02-11T00:06:25;26.50;46.60
44517;DHT22;30223;17.182;-96.766;2023-02-11T00:08:53;26.50;46.70
44517;DHT22;30223;17.182;-96.766;2023-02-11T00:11:20;26.50;46.80
44517;DHT22;30223;17.182;-96.766;2023-02-11T00:13:48;26.50;46.90
44517;DHT22;30223;17.182;-96.766;2023-02-11T00:16:19;26.50;46.90
44517;DHT22;30223;17.182;-96.766;2023-02-11T00:18:46;26.50;47.00
44517;DHT22;30223;17.182;-96.766;2023-02-11T00:21:18;26.50;47.00
44517;DHT22;30223;17.182;-96.766;2023-02-11T00:23:45;26.50;47.10
44517;DHT22;30223;17.182;-96.766;2023-02-11T00:26:17;26.50;47.10
44517;DHT22;30223;17.182;-96.766;2023-02-11T00:28:44;26.50;47.20
44517;DHT22;30223;17.182;-96.766;2023-02-11T00:31:12;26.50;47.90
44517;DHT22;30223;17.182;-96.766;2023-02-11T00:33:38;26.50;47.30
44517;DHT22;30223;17.182;-96.766;2023-02-11T00:36:07;26.50;47.30
44517;DHT22;30223;17.182;-96.766;2023-02-11T00:38:34;26.50;47.40
44517;DHT22;30223;17.182;-96.766;2023-02-11T00:41:01;26.40;47.40
44517;DHT22;30223;17.182;-96.766;2023-02-11T00:43:27;26.50;47.40
44517;DHT22;30223;17.182;-96.766;2023-02-11T00:45:54;26.40;47.30
44517;DHT22;30223;17.182;-96.766;2023-02-11T00:48:20;26.40;47.30
44517;DHT22;30223;17.182;-96.766;2023-02-11T00:50:47;26.40;47.30
44517;DHT22;30223;17.182;-96.766;2023-02-11T00:53:13;26.30;46.90
44517;DHT22;30223;17.182;-96.766;2023-02-11T00:55:40;26.40;46.90
44517;DHT22;30223;17.182;-96.766;2023-02-11T00:58:07;26.30;46.60
44517;DHT22;30223;17.182;-96.766;2023-02-11T01:00:33;26.30;46.80
44517;DHT22;30223;17.182;-96.766;2023-02-11T01:03:00;26.30;46.80
44517;DHT22;30223;17.182;-96.766;2023-02-11T01:05:27;26.30;46.70
44517;DHT22;30223;17.182;-96.766;2023-02-11T01:07:53;26.30;46.60
44517;DHT22;30223;17.182;-96.766;2023-02-11T01:10:20;26.20;46.50
44517;DHT22;30223;17.182;-96.766;2023-02-11T01:12:47;26.20;46.60
44517;DHT22;30223;17.182;-96.766;2023-02-11T01:15:16;26.20;46.20
44517;DHT22;30223;17.182;-96.766;2023-02-11T01:17:43;26.20;45.50
44517;DHT22;30223;17.182;-96.766;2023-02-11T01:20:18;26.20;45.40
44517;DHT22;30223;17.182;-96.766;2023-02-11T01:22:44;26.20;46.50
44517;DHT22;30223;17.182;-96.766;2023-02-11T01:25:11;26.10;45.30
44517;DHT22;30223;17.182;-96.766;2023-02-11T01:27:38;26.10;45.20
44517;DHT22;30223;17.182;-96.766;2023-02-11T01:30:06;26.10;45.30
44517;DHT22;30223;17.182;-96.766;2023-02-11T01:32:34;26.10;46.00
44517;DHT22;30223;17.182;-96.766;2023-02-11T01:35:01;26.10;45.70
44517;DHT22;30223;17.182;-96.766;2023-02-11T01:37:28;26.10;45.80
44517;DHT22;30223;17.182;-96.766;2023-02-11T01:39:54;26.10;46.40
44517;DHT22;30223;17.182;-96.766;2023-02-11T01:42:22;26.10;45.90
44517;DHT22;30223;17.182;-96.766;2023-02-11T01:44:50;26.10;46.30
44517;DHT22;30223;17.182;-96.766;2023-02-11T01:47:18;26.10;45.70
44517;DHT22;30223;17.182;-96.766;2023-02-11T01:49:58;26.20;44.90
44517;DHT22;30223;17.182;-96.766;2023-02-11T01:52:37;26.20;44.70
44517;DHT22;30223;17.182;-96.766;2023-02-11T01:55:15;26.20;45.20
44517;DHT22;30223;17.182;-96.766;2023-02-11T01:58:02;26.20;45.20
44517;DHT22;30223;17.182;-96.766;2023-02-11T02:00:36;26.10;45.50
44517;DHT22;30223;17.182;-96.766;2023-02-11T02:03:18;26.20;45.40
44517;DHT22;30223;17.182;-96.766;2023-02-11T02:05:53;26.10;45.10
44517;DHT22;30223;17.182;-96.766;2023-02-11T02:10:55;26.10;44.70
44517;DHT22;30223;17.182;-96.766;2023-02-11T02:13:27;26.10;45.50
44517;DHT22;30223;17.182;-96.766;2023-02-11T02:15:58;26.20;45.50
44517;DHT22;30223;17.182;-96.766;2023-02-11T02:18:55;26.20;45.90
44517;DHT22;30223;17.182;-96.766;2023-02-11T02:24:30;26.30;46.60
44517;DHT22;30223;17.182;-96.766;2023-02-11T02:38:26;26.30;46.10
44517;DHT22;30223;17.182;-96.766;2023-02-11T02:41:10;26.20;45.90
44517;DHT22;30223;17.182;-96.766;2023-02-11T02:43:44;26.10;45.90
44517;DHT22;30223;17.182;-96.766;2023-02-11T02:46:23;26.00;45.90
44517;DHT22;30223;17.182;-96.766;2023-02-11T02:48:57;26.00;45.90
44517;DHT22;30223;17.182;-96.766;2023-02-11T02:51:51;25.90;45.80
44517;DHT22;30223;17.182;-96.766;2023-02-11T02:54:35;25.80;45.80
44517;DHT22;30223;17.182;-96.766;2023-02-11T02:57:29;25.80;45.90
44517;DHT22;30223;17.182;-96.766;2023-02-11T03:06:12;25.60;45.80
44517;DHT22;30223;17.182;-96.766;2023-02-11T03:09:02;25.50;45.90
44517;DHT22;30223;17.182;-96.766;2023-02-11T03:11:34;25.50;45.90
44517;DHT22;30223;17.182;-96.766;2023-02-11T03:14:11;25.50;46.00
44517;DHT22;30223;17.182;-96.766;2023-02-11T03:16:47;25.50;46.00
44517;DHT22;30223;17.182;-96.766;2023-02-11T03:19:37;25.40;45.90
44517;DHT22;30223;17.182;-96.766;2023-02-11T03:22:24;25.40;46.00
44517;DHT22;30223;17.182;-96.766;2023-02-11T03:24:57;25.40;46.00
44517;DHT22;30223;17.182;-96.766;2023-02-11T03:27:38;25.30;46.00
44517;DHT22;30223;17.182;-96.766;2023-02-11T03:30:57;25.30;46.10
44517;DHT22;30223;17.182;-96.766;2023-02-11T03:33:26;25.30;46.10
44517;DHT22;30223;17.182;-96.766;2023-02-11T03:36:15;25.30;46.20
44517;DHT22;30223;17.182;-96.766;2023-02-11T03:38:50;25.30;46.30
44517;DHT22;30223;17.182;-96.766;2023-02-11T03:41:21;25.20;46.20
44517;DHT22;30223;17.182;-96.766;2023-02-11T03:43:54;25.20;46.20
44517;DHT22;30223;17.182;-96.766;2023-02-11T03:46:39;25.20;46.10
44517;DHT22;30223;17.182;-96.766;2023-02-11T03:49:15;25.20;46.20
44517;DHT22;30223;17.182;-96.766;2023-02-11T03:51:50;25.10;46.30
44517;DHT22;30223;17.182;-96.766;2023-02-11T03:54:29;25.20;46.50
44517;DHT22;30223;17.182;-96.766;2023-02-11T03:57:00;25.20;46.70
44517;DHT22;30223;17.182;-96.766;2023-02-11T03:59:31;25.20;46.80
44517;DHT22;30223;17.182;-96.766;2023-02-11T04:02:08;25.30;46.80
44517;DHT22;30223;17.182;-96.766;2023-02-11T04:04:41;25.30;46.60
44517;DHT22;30223;17.182;-96.766;2023-02-11T04:07:17;25.30;46.50
44517;DHT22;30223;17.182;-96.766;2023-02-11T04:09:54;25.30;46.50
44517;DHT22;30223;17.182;-96.766;2023-02-11T04:12:27;25.40;46.50
44517;DHT22;30223;17.182;-96.766;2023-02-11T04:14:57;25.40;46.40
44517;DHT22;30223;17.182;-96.766;2023-02-11T04:17:30;25.40;46.20
44517;DHT22;30223;17.182;-96.766;2023-02-11T04:20:05;25.40;46.20
44517;DHT22;30223;17.182;-96.766;2023-02-11T04:22:36;25.40;46.10
44517;DHT22;30223;17.182;-96.766;2023-02-11T04:25:19;25.40;46.10
44517;DHT22;30223;17.182;-96.766;2023-02-11T04:27:56;25.40;46.20
44517;DHT22;30223;17.182;-96.766;2023-02-11T04:30:38;25.40;46.10
44517;DHT22;30223;17.182;-96.766;2023-02-11T04:33:12;25.40;46.00
44517;DHT22;30223;17.182;-96.766;2023-02-11T04:35:48;25.40;46.00
44517;DHT22;30223;17.182;-96.766;2023-02-11T04:38:19;25.40;46.00
44517;DHT22;30223;17.182;-96.766;2023-02-11T04:40:49;25.40;46.00
44517;DHT22;30223;17.182;-96.766;2023-02-11T04:43:20;25.40;45.90
44517;DHT22;30223;17.182;-96.766;2023-02-11T04:45:59;25.30;45.90
44517;DHT22;30223;17.182;-96.766;2023-02-11T04:48:29;25.30;45.90
44517;DHT22;30223;17.182;-96.766;2023-02-11T04:51:03;25.30;45.90
44517;DHT22;30223;17.182;-96.766;2023-02-11T04:53:33;25.30;45.90
44517;DHT22;30223;17.182;-96.766;2023-02-11T04:56:05;25.30;46.00
44517;DHT22;30223;17.182;-96.766;2023-02-11T04:58:36;25.30;46.00
44517;DHT22;30223;17.182;-96.766;2023-02-11T05:01:13;25.30;46.10
44517;DHT22;30223;17.182;-96.766;2023-02-11T05:03:44;25.20;46.10
44517;DHT22;30223;17.182;-96.766;2023-02-11T05:06:11;25.20;46.20
44517;DHT22;30223;17.182;-96.766;2023-02-11T05:08:42;25.20;46.30
44517;DHT22;30223;17.182;-96.766;2023-02-11T05:11:18;25.20;46.40
44517;DHT22;30223;17.182;-96.766;2023-02-11T05:13:49;25.20;46.50
44517;DHT22;30223;17.182;-96.766;2023-02-11T05:16:17;25.10;46.50
44517;DHT22;30223;17.182;-96.766;2023-02-11T05:18:51;25.10;46.60
44517;DHT22;30223;17.182;-96.766;2023-02-11T05:21:24;25.10;46.70
44517;DHT22;30223;17.182;-96.766;2023-02-11T05:23:57;25.10;46.80
44517;DHT22;30223;17.182;-96.766;2023-02-11T05:26:31;25.10;47.40
44517;DHT22;30223;17.182;-96.766;2023-02-11T05:29:05;25.10;47.20
44517;DHT22;30223;17.182;-96.766;2023-02-11T05:31:33;25.10;47.30
44517;DHT22;30223;17.182;-96.766;2023-02-11T05:34:06;25.10;47.30
44517;DHT22;30223;17.182;-96.766;2023-02-11T05:36:33;25.10;47.30
44517;DHT22;30223;17.182;-96.766;2023-02-11T05:39:09;25.10;47.30
44517;DHT22;30223;17.182;-96.766;2023-02-11T05:41:45;25.00;47.80
44517;DHT22;30223;17.182;-96.766;2023-02-11T05:44:19;25.00;47.20
44517;DHT22;30223;17.182;-96.766;2023-02-11T05:46:50;25.00;47.20
44517;DHT22;30223;17.182;-96.766;2023-02-11T05:49:18;25.00;47.30
44517;DHT22;30223;17.182;-96.766;2023-02-11T05:51:45;25.00;47.30
44517;DHT22;30223;17.182;-96.766;2023-02-11T05:54:12;24.90;47.30
44517;DHT22;30223;17.182;-96.766;2023-02-11T05:56:43;25.00;47.30
44517;DHT22;30223;17.182;-96.766;2023-02-11T05:59:14;24.90;47.30
44517;DHT22;30223;17.182;-96.766;2023-02-11T06:01:44;24.90;47.30
44517;DHT22;30223;17.182;-96.766;2023-02-11T06:04:12;24.90;47.40
44517;DHT22;30223;17.182;-96.766;2023-02-11T06:06:47;24.90;47.50
44517;DHT22;30223;17.182;-96.766;2023-02-11T06:09:15;24.80;47.40
44517;DHT22;30223;17.182;-96.766;2023-02-11T06:11:42;24.80;47.40
44517;DHT22;30223;17.182;-96.766;2023-02-11T06:14:19;24.80;47.50
44517;DHT22;30223;17.182;-96.766;2023-02-11T06:16:49;24.80;47.50
44517;DHT22;30223;17.182;-96.766;2023-02-11T06:19:23;24.80;47.50
44517;DHT22;30223;17.182;-96.766;2023-02-11T06:21:50;24.80;47.50
44517;DHT22;30223;17.182;-96.766;2023-02-11T06:24:21;24.80;47.60
44517;DHT22;30223;17.182;-96.766;2023-02-11T06:26:49;24.80;47.60
44517;DHT22;30223;17.182;-96.766;2023-02-11T06:29:17;24.70;48.20
44517;DHT22;30223;17.182;-96.766;2023-02-11T06:31:44;24.70;47.60
44517;DHT22;30223;17.182;-96.766;2023-02-11T06:34:19;24.70;47.60
44517;DHT22;30223;17.182;-96.766;2023-02-11T06:37:01;24.70;47.60
44517;DHT22;30223;17.182;-96.766;2023-02-11T06:39:38;24.60;47.50
44517;DHT22;30223;17.182;-96.766;2023-02-11T06:42:11;24.60;47.50
44517;DHT22;30223;17.182;-96.766;2023-02-11T06:44:47;24.60;47.50
44517;DHT22;30223;17.182;-96.766;2023-02-11T06:47:24;24.60;47.50
44517;DHT22;30223;17.182;-96.766;2023-02-11T06:49:51;24.60;47.60
44517;DHT22;30223;17.182;-96.766;2023-02-11T06:52:21;24.60;47.70
44517;DHT22;30223;17.182;-96.766;2023-02-11T06:54:54;24.50;47.70
44517;DHT22;30223;17.182;-96.766;2023-02-11T06:57:31;24.50;47.70
44517;DHT22;30223;17.182;-96.766;2023-02-11T07:00:03;24.50;47.70
44517;DHT22;30223;17.182;-96.766;2023-02-11T07:02:35;24.50;47.70
44517;DHT22;30223;17.182;-96.766;2023-02-11T07:05:09;24.50;47.80
44517;DHT22;30223;17.182;-96.766;2023-02-11T07:07:38;24.50;47.70
44517;DHT22;30223;17.182;-96.766;2023-02-11T07:10:08;24.50;47.80
44517;DHT22;30223;17.182;-96.766;2023-02-11T07:12:35;24.50;47.80
44517;DHT22;30223;17.182;-96.766;2023-02-11T07:15:05;24.40;47.80
44517;DHT22;30223;17.182;-96.766;2023-02-11T07:17:36;24.40;47.70
44517;DHT22;30223;17.182;-96.766;2023-02-11T07:20:09;24.40;47.80
44517;DHT22;30223;17.182;-96.766;2023-02-11T07:22:40;24.40;47.80
44517;DHT22;30223;17.182;-96.766;2023-02-11T07:25:12;24.40;47.80
44517;DHT22;30223;17.182;-96.766;2023-02-11T07:27:39;24.40;47.80
44517;DHT22;30223;17.182;-96.766;2023-02-11T07:30:12;24.40;47.80
44517;DHT22;30223;17.182;-96.766;2023-02-11T07:32:42;24.30;47.80
44517;DHT22;30223;17.182;-96.766;2023-02-11T07:35:15;24.30;47.70
44517;DHT22;30223;17.182;-96.766;2023-02-11T07:37:51;24.40;47.80
44517;DHT22;30223;17.182;-96.766;2023-02-11T07:40:21;24.30;47.70
44517;DHT22;30223;17.182;-96.766;2023-02-11T07:42:57;24.30;47.70
44517;DHT22;30223;17.182;-96.766;2023-02-11T07:45:23;24.30;47.70
44517;DHT22;30223;17.182;-96.766;2023-02-11T07:48:05;24.30;48.40
44517;DHT22;30223;17.182;-96.766;2023-02-11T07:50:38;24.30;47.80
44517;DHT22;30223;17.182;-96.766;2023-02-11T07:53:07;24.20;47.80
44517;DHT22;30223;17.182;-96.766;2023-02-11T07:55:45;24.20;47.80
44517;DHT22;30223;17.182;-96.766;2023-02-11T07:58:15;24.30;47.80
44517;DHT22;30223;17.182;-96.766;2023-02-11T08:00:52;24.20;47.70
44517;DHT22;30223;17.182;-96.766;2023-02-11T08:03:22;24.20;47.80
44517;DHT22;30223;17.182;-96.766;2023-02-11T08:05:52;24.20;47.70
44517;DHT22;30223;17.182;-96.766;2023-02-11T08:08:19;24.20;47.80
44517;DHT22;30223;17.182;-96.766;2023-02-11T08:10:50;24.20;47.80
44517;DHT22;30223;17.182;-96.766;2023-02-11T08:13:17;24.10;47.70
44517;DHT22;30223;17.182;-96.766;2023-02-11T08:15:51;24.10;47.80
44517;DHT22;30223;17.182;-96.766;2023-02-11T08:18:21;24.10;47.80
44517;DHT22;30223;17.182;-96.766;2023-02-11T08:20:51;24.10;47.80
44517;DHT22;30223;17.182;-96.766;2023-02-11T08:23:24;24.10;47.80
44517;DHT22;30223;17.182;-96.766;2023-02-11T08:25:53;24.10;47.80
44517;DHT22;30223;17.182;-96.766;2023-02-11T08:28:20;24.10;47.80
44517;DHT22;30223;17.182;-96.766;2023-02-11T08:30:47;24.00;47.80
44517;DHT22;30223;17.182;-96.766;2023-02-11T08:33:14;24.00;47.80
44517;DHT22;30223;17.182;-96.766;2023-02-11T08:35:40;24.00;47.80
44517;DHT22;30223;17.182;-96.766;2023-02-11T08:38:07;24.00;47.80
44517;DHT22;30223;17.182;-96.766;2023-02-11T08:40:37;23.90;47.80
44517;DHT22;30223;17.182;-96.766;2023-02-11T08:43:19;23.90;47.80
44517;DHT22;30223;17.182;-96.766;2023-02-11T08:45:49;23.90;47.80
44517;DHT22;30223;17.182;-96.766;2023-02-11T08:48:21;23.90;47.90
44517;DHT22;30223;17.182;-96.766;2023-02-11T08:50:54;23.90;47.80
44517;DHT22;30223;17.182;-96.766;2023-02-11T08:53:21;23.90;47.90
44517;DHT22;30223;17.182;-96.766;2023-02-11T08:55:56;23.80;47.90
44517;DHT22;30223;17.182;-96.766;2023-02-11T08:58:26;23.80;47.90
44517;DHT22;30223;17.182;-96.766;2023-02-11T09:00:56;23.70;47.90
44517;DHT22;30223;17.182;-96.766;2023-02-11T09:03:26;23.70;47.90
44517;DHT22;30223;17.182;-96.766;2023-02-11T09:05:54;23.70;47.90
44517;DHT22;30223;17.182;-96.766;2023-02-11T09:08:28;23.70;47.90
44517;DHT22;30223;17.182;-96.766;2023-02-11T09:10:57;23.70;47.90
44517;DHT22;30223;17.182;-96.766;2023-02-11T09:13:24;23.60;47.90
44517;DHT22;30223;17.182;-96.766;2023-02-11T09:15:55;23.60;48.50
44517;DHT22;30223;17.182;-96.766;2023-02-11T09:18:25;23.60;47.90
44517;DHT22;30223;17.182;-96.766;2023-02-11T09:21:01;23.60;47.90
44517;DHT22;30223;17.182;-96.766;2023-02-11T09:23:31;23.60;47.90
44517;DHT22;30223;17.182;-96.766;2023-02-11T09:26:10;23.50;47.90
44517;DHT22;30223;17.182;-96.766;2023-02-11T09:28:38;23.60;48.00
44517;DHT22;30223;17.182;-96.766;2023-02-11T09:31:18;23.50;47.90
44517;DHT22;30223;17.182;-96.766;2023-02-11T09:33:51;23.50;47.90
44517;DHT22;30223;17.182;-96.766;2023-02-11T09:36:19;23.50;47.90
44517;DHT22;30223;17.182;-96.766;2023-02-11T09:38:47;23.50;48.00
44517;DHT22;30223;17.182;-96.766;2023-02-11T09:44:00;23.40;47.90
44517;DHT22;30223;17.182;-96.766;2023-02-11T09:46:39;23.40;47.90
44517;DHT22;30223;17.182;-96.766;2023-02-11T09:49:14;23.40;48.00
44517;DHT22;30223;17.182;-96.766;2023-02-11T09:51:47;23.40;48.00
44517;DHT22;30223;17.182;-96.766;2023-02-11T09:54:31;23.30;47.90
44517;DHT22;30223;17.182;-96.766;2023-02-11T09:56:59;23.30;48.00
44517;DHT22;30223;17.182;-96.766;2023-02-11T09:59:33;23.30;47.90
44517;DHT22;30223;17.182;-96.766;2023-02-11T10:05:05;23.30;48.10
44517;DHT22;30223;17.182;-96.766;2023-02-11T10:08:21;23.30;48.10
44517;DHT22;30223;17.182;-96.766;2023-02-11T10:15:57;23.20;48.10
44517;DHT22;30223;17.182;-96.766;2023-02-11T10:21:31;23.10;48.10
44517;DHT22;30223;17.182;-96.766;2023-02-11T10:24:02;23.10;48.10
44517;DHT22;30223;17.182;-96.766;2023-02-11T10:26:30;23.10;48.10
44517;DHT22;30223;17.182;-96.766;2023-02-11T10:29:03;23.10;48.10
44517;DHT22;30223;17.182;-96.766;2023-02-11T10:31:38;23.10;48.10
44517;DHT22;30223;17.182;-96.766;2023-02-11T10:34:09;23.00;48.00
44517;DHT22;30223;17.182;-96.766;2023-02-11T10:36:40;23.00;48.10
44517;DHT22;30223;17.182;-96.766;2023-02-11T10:41:49;23.00;48.10
44517;DHT22;30223;17.182;-96.766;2023-02-11T10:44:59;23.00;48.10
44517;DHT22;30223;17.182;-96.766;2023-02-11T10:47:14;22.90;48.10
44517;DHT22;30223;17.182;-96.766;2023-02-11T10:49:49;22.90;48.20
44517;DHT22;30223;17.182;-96.766;2023-02-11T10:52:21;22.90;48.20
44517;DHT22;30223;17.182;-96.766;2023-02-11T10:57:48;22.90;48.20
44517;DHT22;30223;17.182;-96.766;2023-02-11T11:03:17;22.80;48.20
44517;DHT22;30223;17.182;-96.766;2023-02-11T11:05:51;22.80;48.20
44517;DHT22;30223;17.182;-96.766;2023-02-11T11:08:18;22.70;48.20
44517;DHT22;30223;17.182;-96.766;2023-02-11T11:10:47;22.80;48.20
44517;DHT22;30223;17.182;-96.766;2023-02-11T11:16:56;22.70;48.20
44517;DHT22;30223;17.182;-96.766;2023-02-11T11:18:53;22.70;48.30
44517;DHT22;30223;17.182;-96.766;2023-02-11T11:26:48;22.60;48.30
44517;DHT22;30223;17.182;-96.766;2023-02-11T11:29:19;22.60;48.30
44517;DHT22;30223;17.182;-96.766;2023-02-11T11:31:59;22.60;48.30
44517;DHT22;30223;17.182;-96.766;2023-02-11T11:34:32;22.60;48.30
44517;DHT22;30223;17.182;-96.766;2023-02-11T11:37:01;22.50;48.30
44517;DHT22;30223;17.182;-96.766;2023-02-11T11:39:35;22.50;48.30
44517;DHT22;30223;17.182;-96.766;2023-02-11T11:42:03;22.50;48.30
44517;DHT22;30223;17.182;-96.766;2023-02-11T11:44:34;22.40;48.30
44517;DHT22;30223;17.182;-96.766;2023-02-11T11:49:34;22.50;48.30
44517;DHT22;30223;17.182;-96.766;2023-02-11T11:54:50;22.40;48.30
44517;DHT22;30223;17.182;-96.766;2023-02-11T11:57:21;22.40;48.90
44517;DHT22;30223;17.182;-96.766;2023-02-11T11:59:58;22.40;48.40
44517;DHT22;30223;17.182;-96.766;2023-02-11T12:05:17;22.40;48.40
44517;DHT22;30223;17.182;-96.766;2023-02-11T12:10:29;22.30;48.40
44517;DHT22;30223;17.182;-96.766;2023-02-11T12:13:03;22.30;48.40
44517;DHT22;30223;17.182;-96.766;2023-02-11T12:15:48;22.30;48.40
44517;DHT22;30223;17.182;-96.766;2023-02-11T12:21:12;22.30;48.40
44517;DHT22;30223;17.182;-96.766;2023-02-11T12:26:26;22.20;48.40
44517;DHT22;30223;17.182;-96.766;2023-02-11T12:29:09;22.20;48.40
44517;DHT22;30223;17.182;-96.766;2023-02-11T12:37:22;22.10;48.40
44517;DHT22;30223;17.182;-96.766;2023-02-11T12:40:12;22.10;48.40
44517;DHT22;30223;17.182;-96.766;2023-02-11T12:53:40;22.10;48.40
44517;DHT22;30223;17.182;-96.766;2023-02-11T12:58:44;22.00;48.40
44517;DHT22;30223;17.182;-96.766;2023-02-11T13:03:44;22.00;48.40
44517;DHT22;30223;17.182;-96.766;2023-02-11T13:06:19;21.90;48.30
44517;DHT22;30223;17.182;-96.766;2023-02-11T13:08:54;21.90;48.30
44517;DHT22;30223;17.182;-96.766;2023-02-11T13:11:37;21.90;48.40
44517;DHT22;30223;17.182;-96.766;2023-02-11T13:14:08;21.90;48.30
44517;DHT22;30223;17.182;-96.766;2023-02-11T13:19:16;21.80;48.30
44517;DHT22;30223;17.182;-96.766;2023-02-11T13:24:28;21.80;48.30
44517;DHT22;30223;17.182;-96.766;2023-02-11T13:30:02;21.80;48.30
44517;DHT22;30223;17.182;-96.766;2023-02-11T13:38:03;21.70;48.30
44517;DHT22;30223;17.182;-96.766;2023-02-11T13:40:35;21.70;48.30
44517;DHT22;30223;17.182;-96.766;2023-02-11T13:43:06;21.70;48.30
44517;DHT22;30223;17.182;-96.766;2023-02-11T13:45:45;21.60;48.20
44517;DHT22;30223;17.182;-96.766;2023-02-11T13:48:23;21.60;48.30
44517;DHT22;30223;17.182;-96.766;2023-02-11T13:50:56;21.60;48.30
44517;DHT22;30223;17.182;-96.766;2023-02-11T13:53:24;21.60;48.30
44517;DHT22;30223;17.182;-96.766;2023-02-11T14:04:32;21.50;48.30
44517;DHT22;30223;17.182;-96.766;2023-02-11T14:10:46;21.60;48.40
44517;DHT22;30223;17.182;-96.766;2023-02-11T14:15:44;21.60;48.50
44517;DHT22;30223;17.182;-96.766;2023-02-11T14:19:12;21.60;48.50
44517;DHT22;30223;17.182;-96.766;2023-02-11T14:23:50;21.50;48.50
44517;DHT22;30223;17.182;-96.766;2023-02-11T14:26:41;21.50;48.50
44517;DHT22;30223;17.182;-96.766;2023-02-11T14:29:17;21.40;48.60
44517;DHT22;30223;17.182;-96.766;2023-02-11T14:32:04;21.40;48.70
44517;DHT22;30223;17.182;-96.766;2023-02-11T14:42:23;21.30;49.00
44517;DHT22;30223;17.182;-96.766;2023-02-11T14:44:52;21.30;49.00
44517;DHT22;30223;17.182;-96.766;2023-02-11T14:47:39;21.30;49.00
44517;DHT22;30223;17.182;-96.766;2023-02-11T14:50:31;21.30;49.20
44517;DHT22;30223;17.182;-96.766;2023-02-11T14:53:02;21.30;49.20
44517;DHT22;30223;17.182;-96.766;2023-02-11T14:55:32;21.30;49.20
44517;DHT22;30223;17.182;-96.766;2023-02-11T14:58:06;21.30;49.20
44517;DHT22;30223;17.182;-96.766;2023-02-11T15:00:36;21.30;49.30
44517;DHT22;30223;17.182;-96.766;2023-02-11T15:03:26;21.30;49.30
44517;DHT22;30223;17.182;-96.766;2023-02-11T15:05:54;21.30;49.30
44517;DHT22;30223;17.182;-96.766;2023-02-11T15:08:22;21.30;49.30
44517;DHT22;30223;17.182;-96.766;2023-02-11T15:10:51;21.30;49.30
44517;DHT22;30223;17.182;-96.766;2023-02-11T15:13:22;21.30;49.90
44517;DHT22;30223;17.182;-96.766;2023-02-11T15:16:06;21.30;49.30
44517;DHT22;30223;17.182;-96.766;2023-02-11T15:18:36;21.30;49.30
44517;DHT22;30223;17.182;-96.766;2023-02-11T15:21:05;21.30;49.40
44517;DHT22;30223;17.182;-96.766;2023-02-11T15:23:33;21.30;49.30
44517;DHT22;30223;17.182;-96.766;2023-02-11T15:26:02;21.30;49.40
44517;DHT22;30223;17.182;-96.766;2023-02-11T15:28:37;21.30;49.30
44517;DHT22;30223;17.182;-96.766;2023-02-11T15:31:12;21.30;49.30
44517;DHT22;30223;17.182;-96.766;2023-02-11T15:33:39;21.30;49.40
44517;DHT22;30223;17.182;-96.766;2023-02-11T15:36:10;21.40;49.50
44517;DHT22;30223;17.182;-96.766;2023-02-11T15:38:37;21.40;49.40
44517;DHT22;30223;17.182;-96.766;2023-02-11T15:41:52;21.40;49.50
44517;DHT22;30223;17.182;-96.766;2023-02-11T15:43:54;21.40;49.40
44517;DHT22;30223;17.182;-96.766;2023-02-11T15:46:23;21.40;49.40
44517;DHT22;30223;17.182;-96.766;2023-02-11T15:48:57;21.40;49.50
44517;DHT22;30223;17.182;-96.766;2023-02-11T15:51:35;21.50;50.10
44517;DHT22;30223;17.182;-96.766;2023-02-11T15:54:14;21.70;50.70
44517;DHT22;30223;17.182;-96.766;2023-02-11T15:56:42;21.90;50.50
44517;DHT22;30223;17.182;-96.766;2023-02-11T15:59:26;22.10;50.60
44517;DHT22;30223;17.182;-96.766;2023-02-11T16:04:56;22.50;50.10
44517;DHT22;30223;17.182;-96.766;2023-02-11T16:07:44;22.60;49.40
44517;DHT22;30223;17.182;-96.766;2023-02-11T16:10:18;22.70;49.00
44517;DHT22;30223;17.182;-96.766;2023-02-11T16:12:53;22.80;48.60
44517;DHT22;30223;17.182;-96.766;2023-02-11T16:15:27;22.90;48.40
44517;DHT22;30223;17.182;-96.766;2023-02-11T16:17:54;22.90;47.90
44517;DHT22;30223;17.182;-96.766;2023-02-11T16:20:24;22.90;47.90
44517;DHT22;30223;17.182;-96.766;2023-02-11T16:22:55;22.90;47.70
44517;DHT22;30223;17.182;-96.766;2023-02-11T16:25:25;23.00;47.80
44517;DHT22;30223;17.182;-96.766;2023-02-11T16:27:52;23.00;47.90
44517;DHT22;30223;17.182;-96.766;2023-02-11T16:32:53;23.00;48.00
44517;DHT22;30223;17.182;-96.766;2023-02-11T16:35:19;22.90;47.90
44517;DHT22;30223;17.182;-96.766;2023-02-11T16:37:55;22.90;47.90
44517;DHT22;30223;17.182;-96.766;2023-02-11T16:40:26;22.80;47.80
44517;DHT22;30223;17.182;-96.766;2023-02-11T16:42:57;22.70;47.80
44517;DHT22;30223;17.182;-96.766;2023-02-11T16:45:35;22.70;47.80
44517;DHT22;30223;17.182;-96.766;2023-02-11T16:48:06;22.50;47.70
44517;DHT22;30223;17.182;-96.766;2023-02-11T16:50:34;22.50;48.40
44517;DHT22;30223;17.182;-96.766;2023-02-11T16:53:01;22.40;47.70
44517;DHT22;30223;17.182;-96.766;2023-02-11T16:55:34;22.40;47.60
44517;DHT22;30223;17.182;-96.766;2023-02-11T16:58:00;22.40;47.60
44517;DHT22;30223;17.182;-96.766;2023-02-11T17:00:27;22.40;47.60
44517;DHT22;30223;17.182;-96.766;2023-02-11T17:02:54;22.30;47.40
44517;DHT22;30223;17.182;-96.766;2023-02-11T17:05:24;22.30;47.30
44517;DHT22;30223;17.182;-96.766;2023-02-11T17:07:54;22.30;47.50
44517;DHT22;30223;17.182;-96.766;2023-02-11T17:10:21;22.30;47.40
44517;DHT22;30223;17.182;-96.766;2023-02-11T17:12:49;22.30;47.30
44517;DHT22;30223;17.182;-96.766;2023-02-11T17:15:20;22.30;47.40
44517;DHT22;30223;17.182;-96.766;2023-02-11T17:17:47;22.30;47.50
44517;DHT22;30223;17.182;-96.766;2023-02-11T17:20:14;22.30;47.40
44517;DHT22;30223;17.182;-96.766;2023-02-11T17:22:41;22.30;47.40
44517;DHT22;30223;17.182;-96.766;2023-02-11T17:25:08;22.30;47.50
44517;DHT22;30223;17.182;-96.766;2023-02-11T17:27:36;22.30;47.40
44517;DHT22;30223;17.182;-96.766;2023-02-11T17:30:08;22.30;47.20
44517;DHT22;30223;17.182;-96.766;2023-02-11T17:32:36;22.30;47.10
44517;DHT22;30223;17.182;-96.766;2023-02-11T17:35:05;22.40;47.20
44517;DHT22;30223;17.182;-96.766;2023-02-11T17:37:35;22.40;47.10
44517;DHT22;30223;17.182;-96.766;2023-02-11T17:40:05;22.40;46.90
44517;DHT22;30223;17.182;-96.766;2023-02-11T17:42:35;22.40;46.90
44517;DHT22;30223;17.182;-96.766;2023-02-11T17:45:09;22.40;46.70
44517;DHT22;30223;17.182;-96.766;2023-02-11T17:47:41;22.40;46.40
44517;DHT22;30223;17.182;-96.766;2023-02-11T17:50:18;22.50;46.50
44517;DHT22;30223;17.182;-96.766;2023-02-11T17:52:48;22.50;46.50